createdAt,value
2022-11-19T07:30:47.159Z,72.41
2022-11-19T07:31:47.096Z,72.25
2022-11-19T07:32:47.120Z,72.48
2022-11-19T07:33:47.097Z,72.63
2022-11-19T07:34:48.292Z,72.71
2022-11-19T07:35:47.291Z,72.66
2022-11-19T07:36:47.333Z,72.54
2022-11-19T07:37:47.268Z,72.35
2022-11-19T07:38:49.792Z,72.15
2022-11-19T07:39:47.247Z,71.94
2022-11-19T07:40:47.914Z,71.73
2022-11-19T07:41:47.592Z,71.56
2022-11-19T07:42:46.975Z,71.38
2022-11-19T07:43:47.006Z,71.22
2022-11-19T07:44:49.765Z,71.04
2022-11-19T07:45:48.428Z,70.85
2022-11-19T07:46:47.895Z,70.71
2022-11-19T07:47:47.170Z,70.53
2022-11-19T07:48:47.169Z,70.37
2022-11-19T07:49:47.293Z,70.20
2022-11-19T07:50:47.109Z,70.05
2022-11-19T07:51:47.137Z,69.89
2022-11-19T07:52:50.051Z,69.74
2022-11-19T07:53:47.102Z,69.58
2022-11-19T07:54:46.839Z,69.44
2022-11-19T07:55:47.078Z,69.30
2022-11-19T07:56:46.841Z,69.18
2022-11-19T07:57:46.783Z,69.04
2022-11-19T07:58:47.978Z,68.91
2022-11-19T07:59:47.013Z,68.79
2022-11-19T08:00:47.035Z,68.66
2022-11-19T08:01:48.236Z,68.53
2022-11-19T08:02:46.784Z,68.44
2022-11-19T08:03:49.514Z,68.33
2022-11-19T08:04:49.396Z,68.24
2022-11-19T08:05:46.686Z,68.16
2022-11-19T08:06:46.898Z,68.05
2022-11-19T08:07:47.690Z,67.97
2022-11-19T08:08:46.956Z,67.92
2022-11-19T08:09:48.169Z,67.87
2022-11-19T08:10:47.803Z,67.83
2022-11-19T08:11:46.935Z,67.77
2022-11-19T08:12:46.913Z,67.72
2022-11-19T08:13:46.831Z,67.65
2022-11-19T08:14:46.567Z,67.59
2022-11-19T08:15:47.560Z,67.53
2022-11-19T08:16:46.548Z,67.48
2022-11-19T08:17:46.525Z,67.44
2022-11-19T08:18:46.530Z,67.39
2022-11-19T08:19:46.532Z,67.37
2022-11-19T08:20:46.541Z,67.35
2022-11-19T08:21:47.692Z,67.32
2022-11-19T08:22:46.793Z,67.29
2022-11-19T08:23:46.743Z,67.25
2022-11-19T08:24:47.247Z,67.21
2022-11-19T08:25:46.493Z,67.20
2022-11-19T08:26:47.333Z,67.17
2022-11-19T08:27:46.497Z,67.13
2022-11-19T08:28:46.723Z,67.17
2022-11-19T08:29:46.415Z,67.20
2022-11-19T08:30:46.384Z,67.24
2022-11-19T08:31:46.377Z,67.30
2022-11-19T08:32:47.351Z,67.33
2022-11-19T08:33:46.352Z,67.36
2022-11-19T08:34:46.652Z,67.39
2022-11-19T08:35:46.625Z,67.39
2022-11-19T08:36:46.302Z,67.41
2022-11-19T08:37:47.268Z,67.36
2022-11-19T08:38:46.886Z,67.31
2022-11-19T08:39:46.875Z,67.20
2022-11-19T08:40:46.279Z,67.16
2022-11-19T08:41:46.243Z,67.06
2022-11-19T08:42:46.813Z,66.99
2022-11-19T08:43:47.178Z,66.91
2022-11-19T08:44:46.483Z,66.83
2022-11-19T08:45:46.214Z,66.75
2022-11-19T08:46:46.210Z,66.67
2022-11-19T08:47:46.475Z,66.56
2022-11-19T08:48:47.410Z,66.44
2022-11-19T08:49:51.004Z,66.35
2022-11-19T08:50:46.834Z,66.26
2022-11-19T08:51:46.224Z,66.20
2022-11-19T08:52:46.825Z,66.17
2022-11-19T08:53:47.262Z,66.15
2022-11-19T08:54:46.128Z,66.10
2022-11-19T08:55:46.373Z,66.00
2022-11-19T08:56:47.252Z,65.91
2022-11-19T08:57:47.052Z,65.84
2022-11-19T08:58:46.360Z,65.77
2022-11-19T08:59:47.911Z,65.69
2022-11-19T09:00:46.016Z,65.61
2022-11-19T09:01:46.019Z,65.50
2022-11-19T09:02:46.024Z,65.40
2022-11-19T09:03:46.297Z,65.30
2022-11-19T09:04:45.998Z,65.23
2022-11-19T09:05:48.207Z,65.20
2022-11-19T09:06:46.204Z,65.19
2022-11-19T09:07:46.227Z,65.21
2022-11-19T09:08:52.746Z,65.26
2022-11-19T09:09:46.908Z,65.32
2022-11-19T09:10:46.840Z,65.34
2022-11-19T09:11:46.828Z,65.33
2022-11-19T09:12:47.152Z,65.31
2022-11-19T09:13:46.123Z,65.27
2022-11-19T09:14:46.789Z,65.25
2022-11-19T09:15:45.875Z,65.25
2022-11-19T09:16:47.976Z,65.31
2022-11-19T09:17:47.170Z,65.39
2022-11-19T09:18:45.839Z,65.51
2022-11-19T09:19:47.162Z,65.62
2022-11-19T09:20:45.797Z,65.70
2022-11-19T09:21:47.029Z,65.75
2022-11-19T09:22:46.905Z,65.77
2022-11-19T09:23:51.560Z,65.77
2022-11-19T09:24:45.737Z,65.81
2022-11-19T09:25:47.335Z,65.81
2022-11-19T09:26:52.483Z,65.81
2022-11-19T09:27:50.045Z,65.81
2022-11-19T09:28:49.971Z,65.77
2022-11-19T09:29:45.644Z,65.77
2022-11-19T09:30:45.630Z,65.72
2022-11-19T09:31:46.584Z,65.69
2022-11-19T09:32:47.139Z,65.64
2022-11-19T09:33:45.588Z,65.56
2022-11-19T09:34:45.574Z,65.51
2022-11-19T09:35:45.854Z,65.42
2022-11-19T09:36:45.876Z,65.36
2022-11-19T09:37:46.778Z,65.30
2022-11-19T09:38:45.510Z,65.24
2022-11-19T09:39:45.511Z,65.19
2022-11-19T09:40:45.492Z,65.12
2022-11-19T09:41:46.563Z,65.03
2022-11-19T09:42:46.465Z,64.90
2022-11-19T09:43:46.463Z,64.71
2022-11-19T09:44:46.647Z,64.51
2022-11-19T09:45:46.398Z,64.38
2022-11-19T09:46:46.381Z,64.24
2022-11-19T09:47:47.538Z,64.12
2022-11-19T09:48:46.682Z,63.99
2022-11-19T09:49:45.388Z,63.90
2022-11-19T09:50:49.043Z,63.81
2022-11-19T09:51:47.075Z,63.74
2022-11-19T09:52:45.339Z,63.67
2022-11-19T09:53:47.255Z,63.67
2022-11-19T09:54:45.312Z,63.70
2022-11-19T09:55:45.352Z,63.71
2022-11-19T09:56:46.309Z,63.78
2022-11-19T09:57:45.257Z,63.85
2022-11-19T09:58:51.035Z,63.90
2022-11-19T09:59:46.246Z,63.95
2022-11-19T10:00:54.736Z,63.99
2022-11-19T10:01:45.476Z,64.05
2022-11-19T10:02:46.187Z,64.11
2022-11-19T10:03:45.189Z,64.19
2022-11-19T10:04:45.212Z,64.25
2022-11-19T10:05:46.320Z,64.33
2022-11-19T10:06:45.475Z,64.39
2022-11-19T10:07:45.171Z,64.44
2022-11-19T10:08:45.447Z,64.51
2022-11-19T10:09:46.213Z,64.57
2022-11-19T10:10:46.263Z,64.65
2022-11-19T10:11:47.083Z,64.75
2022-11-19T10:12:45.104Z,64.87
2022-11-19T10:13:45.106Z,65.01
2022-11-19T10:14:45.427Z,65.11
2022-11-19T10:15:45.393Z,65.19
2022-11-19T10:16:45.963Z,65.23
2022-11-19T10:17:45.334Z,65.28
2022-11-19T10:18:45.291Z,65.33
2022-11-19T10:19:45.024Z,65.38
2022-11-19T10:20:45.277Z,65.41
2022-11-19T10:21:45.923Z,65.47
2022-11-19T10:22:46.183Z,65.52
2022-11-19T10:23:45.897Z,65.56
2022-11-19T10:24:45.303Z,65.59
2022-11-19T10:25:44.926Z,65.60
2022-11-19T10:26:45.016Z,65.61
2022-11-19T10:27:45.181Z,65.59
2022-11-19T10:28:50.875Z,65.57
2022-11-19T10:29:45.127Z,65.55
2022-11-19T10:30:45.158Z,65.57
2022-11-19T10:31:45.801Z,65.57
2022-11-19T10:32:44.878Z,65.57
2022-11-19T10:33:45.761Z,65.60
2022-11-19T10:34:46.686Z,65.65
2022-11-19T10:35:45.169Z,65.66
2022-11-19T10:36:44.769Z,65.65
2022-11-19T10:37:44.822Z,65.63
2022-11-19T10:38:49.936Z,65.60
2022-11-19T10:39:46.263Z,65.57
2022-11-19T10:40:45.653Z,65.57
2022-11-19T10:41:44.723Z,65.55
2022-11-19T10:42:44.740Z,65.54
2022-11-19T10:43:44.683Z,65.49
2022-11-19T10:44:44.691Z,65.44
2022-11-19T10:45:44.782Z,65.39
2022-11-19T10:46:45.834Z,65.35
2022-11-19T10:47:44.721Z,65.28
2022-11-19T10:48:44.634Z,65.24
2022-11-19T10:49:44.640Z,65.16
2022-11-19T10:50:44.753Z,65.08
2022-11-19T10:51:44.942Z,65.00
2022-11-19T10:52:47.336Z,64.92
2022-11-19T10:53:44.585Z,64.84
2022-11-19T10:54:45.821Z,64.81
2022-11-19T10:55:48.826Z,64.77
2022-11-19T10:56:46.798Z,64.72
2022-11-19T10:57:52.049Z,64.69
2022-11-19T10:58:45.691Z,64.67
2022-11-19T10:59:45.009Z,64.66
2022-11-19T11:00:44.897Z,64.61
2022-11-19T11:01:44.813Z,64.55
2022-11-19T11:02:44.526Z,64.53
2022-11-19T11:03:49.289Z,64.48
2022-11-19T11:04:44.425Z,64.42
2022-11-19T11:05:44.865Z,64.36
2022-11-19T11:06:44.409Z,64.31
2022-11-19T11:07:49.782Z,64.28
2022-11-19T11:08:45.941Z,64.32
2022-11-19T11:09:45.409Z,64.34
2022-11-19T11:10:44.356Z,64.40
2022-11-19T11:11:45.276Z,64.45
2022-11-19T11:12:44.413Z,64.53
2022-11-19T11:13:48.687Z,64.63
2022-11-19T11:14:44.292Z,64.74
2022-11-19T11:15:46.452Z,64.77
2022-11-19T11:16:44.532Z,64.80
2022-11-19T11:17:44.330Z,64.82
2022-11-19T11:18:45.571Z,64.83
2022-11-19T11:19:45.451Z,64.85
2022-11-19T11:20:45.183Z,64.82
2022-11-19T11:21:45.402Z,64.82
2022-11-19T11:22:44.256Z,64.80
2022-11-19T11:23:44.239Z,64.79
2022-11-19T11:24:44.181Z,64.79
2022-11-19T11:25:46.906Z,64.78
2022-11-19T11:26:45.071Z,64.82
2022-11-19T11:27:44.178Z,64.91
2022-11-19T11:28:44.134Z,64.93
2022-11-19T11:29:44.166Z,65.02
2022-11-19T11:30:44.095Z,65.13
2022-11-19T11:31:44.102Z,65.21
2022-11-19T11:32:45.020Z,65.31
2022-11-19T11:33:44.354Z,65.40
2022-11-19T11:34:44.192Z,65.50
2022-11-19T11:35:44.392Z,65.58
2022-11-19T11:36:44.277Z,65.67
2022-11-19T11:37:45.022Z,65.76
2022-11-19T11:38:45.031Z,65.86
2022-11-19T11:39:44.328Z,65.94
2022-11-19T11:40:43.987Z,65.99
2022-11-19T11:42:44.970Z,66.09
2022-11-19T11:43:44.906Z,66.12
2022-11-19T11:44:43.938Z,66.10
2022-11-19T11:45:43.961Z,66.06
2022-11-19T11:46:43.987Z,65.99
2022-11-19T11:47:43.927Z,65.92
2022-11-19T11:48:44.663Z,65.87
2022-11-19T11:49:44.829Z,65.86
2022-11-19T11:50:43.833Z,65.87
2022-11-19T11:51:43.869Z,65.86
2022-11-19T11:52:43.813Z,65.85
2022-11-19T11:53:44.444Z,65.84
2022-11-19T11:54:44.115Z,65.82
2022-11-19T11:55:44.752Z,65.74
2022-11-19T11:56:43.837Z,65.64
2022-11-19T11:57:43.752Z,65.58
2022-11-19T11:58:43.767Z,65.49
2022-11-19T11:59:44.067Z,65.40
2022-11-19T12:00:43.697Z,65.34
2022-11-19T12:01:45.619Z,65.24
2022-11-19T12:02:43.708Z,65.19
2022-11-19T12:03:54.625Z,65.15
2022-11-19T12:04:45.287Z,65.11
2022-11-19T12:05:43.632Z,65.08
2022-11-19T12:06:44.607Z,65.07
2022-11-19T12:07:43.947Z,65.04
2022-11-19T12:08:43.648Z,64.99
2022-11-19T12:09:43.895Z,65.04
2022-11-19T12:10:43.873Z,65.07
2022-11-19T12:11:43.634Z,65.11
2022-11-19T12:12:44.844Z,65.16
2022-11-19T12:13:43.725Z,65.19
2022-11-19T12:14:43.955Z,65.21
2022-11-19T12:15:44.796Z,65.23
2022-11-19T12:16:47.497Z,65.22
2022-11-19T12:17:43.575Z,65.20
2022-11-19T12:18:45.005Z,65.16
2022-11-19T12:19:43.509Z,65.13
2022-11-19T12:20:43.508Z,65.13
2022-11-19T12:21:43.704Z,65.11
2022-11-19T12:22:43.458Z,65.13
2022-11-19T12:23:44.369Z,65.13
2022-11-19T12:24:43.452Z,65.11
2022-11-19T12:25:43.562Z,65.10
2022-11-19T12:26:43.388Z,65.08
2022-11-19T12:27:43.401Z,65.06
2022-11-19T12:28:43.709Z,65.07
2022-11-19T12:29:48.243Z,65.11
2022-11-19T12:30:43.609Z,65.12
2022-11-19T12:31:43.862Z,65.14
2022-11-19T12:32:43.355Z,65.11
2022-11-19T12:33:43.328Z,65.08
2022-11-19T12:34:45.981Z,65.02
2022-11-19T12:35:44.224Z,64.99
2022-11-19T12:36:43.339Z,64.94
2022-11-19T12:37:43.258Z,64.94
2022-11-19T12:38:43.250Z,64.94
2022-11-19T12:39:44.199Z,64.95
2022-11-19T12:40:43.241Z,64.97
2022-11-19T12:41:43.243Z,64.99
2022-11-19T12:42:43.181Z,65.02
2022-11-19T12:43:43.200Z,65.11
2022-11-19T12:44:44.139Z,65.17
2022-11-19T12:45:43.562Z,65.27
2022-11-19T12:46:43.167Z,65.38
2022-11-19T12:47:45.194Z,65.48
2022-11-19T12:48:43.128Z,65.60
2022-11-19T12:49:44.320Z,65.70
2022-11-19T12:50:43.330Z,65.77
2022-11-19T12:51:43.534Z,65.84
2022-11-19T12:52:43.085Z,65.87
2022-11-19T12:53:44.031Z,65.87
2022-11-19T12:54:43.070Z,65.86
2022-11-19T12:55:43.985Z,65.85
2022-11-19T12:56:43.361Z,65.82
2022-11-19T12:57:42.994Z,65.79
2022-11-19T12:58:42.992Z,65.75
2022-11-19T12:59:43.273Z,65.72
2022-11-19T13:00:42.985Z,65.68
2022-11-19T13:01:43.945Z,65.64
2022-11-19T13:02:42.966Z,65.61
2022-11-19T13:03:43.204Z,65.58
2022-11-19T13:04:43.224Z,65.56
2022-11-19T13:05:42.914Z,65.53
2022-11-19T13:06:44.254Z,65.50
2022-11-19T13:07:43.289Z,65.48
2022-11-19T13:08:42.896Z,65.44
2022-11-19T13:09:42.857Z,65.41
2022-11-19T13:10:42.877Z,65.35
2022-11-19T13:11:42.871Z,65.32
2022-11-19T13:12:43.989Z,65.29
2022-11-19T13:13:43.357Z,65.28
2022-11-19T13:14:42.832Z,65.29
2022-11-19T13:15:42.765Z,65.28
2022-11-19T13:16:42.804Z,65.28
2022-11-19T13:17:44.477Z,65.29
2022-11-19T13:18:42.775Z,65.34
2022-11-19T13:19:42.727Z,65.37
2022-11-19T13:20:42.717Z,65.40
2022-11-19T13:21:42.715Z,65.44
2022-11-19T13:22:42.729Z,65.52
2022-11-19T13:23:43.651Z,65.60
2022-11-19T13:24:42.663Z,65.66
2022-11-19T13:25:42.663Z,65.71
2022-11-19T13:26:42.671Z,65.77
2022-11-19T13:27:42.941Z,65.84
2022-11-19T13:28:43.542Z,65.94
2022-11-19T13:29:42.909Z,66.01
2022-11-19T13:30:42.839Z,66.12
2022-11-19T13:31:42.589Z,66.24
2022-11-19T13:32:42.559Z,66.39
2022-11-19T13:33:42.846Z,66.55
2022-11-19T13:34:43.720Z,66.65
2022-11-19T13:35:42.551Z,66.77
2022-11-19T13:36:42.500Z,66.86
2022-11-19T13:37:42.508Z,66.95
2022-11-19T13:38:42.508Z,66.99
2022-11-19T13:39:45.251Z,67.02
2022-11-19T13:40:47.100Z,67.05
2022-11-19T13:41:42.717Z,67.12
2022-11-19T13:42:42.490Z,67.17
2022-11-19T13:43:42.443Z,67.21
2022-11-19T13:44:42.841Z,67.22
2022-11-19T13:45:45.458Z,67.26
2022-11-19T13:46:45.231Z,67.28
2022-11-19T13:47:42.478Z,67.28
2022-11-19T13:48:42.639Z,67.28
2022-11-19T13:49:42.386Z,67.25
2022-11-19T13:50:49.616Z,67.25
2022-11-19T13:51:42.307Z,67.25
2022-11-19T13:52:43.233Z,67.27
2022-11-19T13:53:42.318Z,67.28
2022-11-19T13:54:42.326Z,67.26
2022-11-19T13:55:42.288Z,67.26
2022-11-19T13:56:43.116Z,67.27
2022-11-19T13:57:42.248Z,67.28
2022-11-19T13:58:43.474Z,67.26
2022-11-19T13:59:43.697Z,67.30
2022-11-19T14:00:42.279Z,67.33
2022-11-19T14:01:43.442Z,67.36
2022-11-19T14:02:42.185Z,67.38
2022-11-19T14:03:42.513Z,67.41
2022-11-19T14:04:43.623Z,67.43
2022-11-19T14:05:47.460Z,67.43
2022-11-19T14:06:48.468Z,67.46
2022-11-19T14:07:42.286Z,67.53
2022-11-19T14:08:42.179Z,67.59
2022-11-19T14:09:43.046Z,67.68
2022-11-19T14:10:42.161Z,67.73
2022-11-19T14:11:42.353Z,67.81
2022-11-19T14:12:42.060Z,67.84
2022-11-19T14:13:42.392Z,67.88
2022-11-19T14:14:48.604Z,67.90
2022-11-19T14:15:42.387Z,67.96
2022-11-19T14:16:42.270Z,68.03
2022-11-19T14:17:42.067Z,68.08
2022-11-19T14:18:42.335Z,68.15
2022-11-19T14:19:41.991Z,68.17
2022-11-19T14:20:42.893Z,68.21
2022-11-19T14:21:46.006Z,68.24
2022-11-19T14:22:41.961Z,68.28
2022-11-19T14:23:41.995Z,68.31
2022-11-19T14:24:41.971Z,68.32
2022-11-19T14:25:42.879Z,68.32
2022-11-19T14:26:41.898Z,68.33
2022-11-19T14:27:41.930Z,68.35
2022-11-19T14:28:41.901Z,68.37
2022-11-19T14:29:41.900Z,68.40
2022-11-19T14:30:42.748Z,68.44
2022-11-19T14:31:41.869Z,68.44
2022-11-19T14:32:46.651Z,68.45
2022-11-19T14:33:43.322Z,68.47
2022-11-19T14:34:41.786Z,68.50
2022-11-19T14:35:41.809Z,68.55
2022-11-19T14:36:42.950Z,68.56
2022-11-19T14:37:42.026Z,68.57
2022-11-19T14:38:41.738Z,68.58
2022-11-19T14:39:41.753Z,68.60
2022-11-19T14:40:43.969Z,68.62
2022-11-19T14:41:42.679Z,68.63
2022-11-19T14:42:41.664Z,68.63
2022-11-19T15:42:04.332Z,71.72
2022-11-19T15:43:05.519Z,71.74
2022-11-19T15:44:06.552Z,72.14
2022-11-19T15:45:04.610Z,72.47
2022-11-19T15:46:04.270Z,72.60
2022-11-19T15:47:04.266Z,72.64
2022-11-19T15:48:04.191Z,72.55
2022-11-19T15:49:05.254Z,72.40
2022-11-19T15:50:04.110Z,72.24
2022-11-19T15:51:04.166Z,72.04
2022-11-19T15:52:04.549Z,71.85
2022-11-19T15:53:04.121Z,71.65
2022-11-19T15:54:05.032Z,71.46
2022-11-19T15:55:04.096Z,71.30
2022-11-19T15:56:04.122Z,71.15
2022-11-19T15:57:04.061Z,71.03
2022-11-19T15:58:04.040Z,70.93
2022-11-19T15:59:04.049Z,70.80
2022-11-19T16:00:04.968Z,70.71
2022-11-19T16:01:04.277Z,70.65
2022-11-19T16:02:03.985Z,70.58
2022-11-19T16:03:04.357Z,70.50
2022-11-19T16:04:03.989Z,70.44
2022-11-19T16:05:04.092Z,70.39
2022-11-19T16:06:05.071Z,70.35
2022-11-19T16:07:04.264Z,70.30
2022-11-19T16:08:03.925Z,70.26
2022-11-19T16:09:03.925Z,70.24
2022-11-19T16:10:03.960Z,70.21
2022-11-19T16:11:03.883Z,70.17
2022-11-19T16:12:04.859Z,70.16
2022-11-19T16:13:03.872Z,70.14
2022-11-19T16:14:04.221Z,70.13
2022-11-19T16:15:03.865Z,70.10
2022-11-19T16:16:03.840Z,70.07
2022-11-19T16:17:05.064Z,70.05
2022-11-19T16:18:03.889Z,70.03
2022-11-19T16:19:03.774Z,70.01
2022-11-19T16:20:03.783Z,69.97
2022-11-19T16:21:03.738Z,69.96
2022-11-19T16:22:04.095Z,69.96
2022-11-19T16:23:04.704Z,69.96
2022-11-19T16:24:03.782Z,69.94
2022-11-19T16:25:03.684Z,69.92
2022-11-19T16:26:03.990Z,69.88
2022-11-19T16:27:04.072Z,69.88
2022-11-19T16:28:03.660Z,69.85
2022-11-19T16:29:06.801Z,69.86
2022-11-19T16:30:03.628Z,69.85
2022-11-19T16:31:03.650Z,69.82
2022-11-19T16:32:03.724Z,69.81
2022-11-19T16:33:03.587Z,69.80
2022-11-19T16:34:03.983Z,69.81
2022-11-19T16:35:04.522Z,69.81
2022-11-19T16:36:03.660Z,69.79
2022-11-19T16:37:03.564Z,69.79
2022-11-19T16:38:03.589Z,69.78
2022-11-19T16:39:03.609Z,69.74
2022-11-19T16:40:03.548Z,69.74
2022-11-19T16:41:04.537Z,69.72
2022-11-19T16:42:03.460Z,69.72
2022-11-19T16:43:03.917Z,69.71
2022-11-19T16:44:03.816Z,69.70
2022-11-19T16:45:03.465Z,69.68
2022-11-19T16:46:04.366Z,69.68
2022-11-19T16:47:03.403Z,69.67
2022-11-19T16:48:03.442Z,69.66
2022-11-19T16:49:03.497Z,69.63
2022-11-19T16:50:03.397Z,69.63
2022-11-19T16:51:03.891Z,69.65
2022-11-19T16:52:04.312Z,69.62
2022-11-19T16:53:03.729Z,69.62
2022-11-19T16:54:03.412Z,69.63
2022-11-19T16:55:03.331Z,69.62
2022-11-19T16:56:03.308Z,69.60
2022-11-19T16:57:04.285Z,69.60
2022-11-19T16:58:03.320Z,69.60
2022-11-19T16:59:03.565Z,69.58
2022-11-19T17:00:03.276Z,69.58
2022-11-19T17:01:03.300Z,69.58
2022-11-19T17:02:03.363Z,69.56
2022-11-19T17:03:04.489Z,69.55
2022-11-19T17:04:03.234Z,69.51
2022-11-19T17:05:03.317Z,69.50
2022-11-19T17:06:03.221Z,69.50
2022-11-19T17:07:03.295Z,69.49
2022-11-19T17:08:04.054Z,69.48
2022-11-19T17:09:03.160Z,69.47
2022-11-19T17:10:03.150Z,69.46
2022-11-19T17:11:03.230Z,69.47
2022-11-19T17:12:03.100Z,69.48
2022-11-19T17:13:04.377Z,69.46
2022-11-19T17:14:03.132Z,69.46
2022-11-19T17:15:07.027Z,69.46
2022-11-19T17:16:03.056Z,69.44
2022-11-19T17:17:03.040Z,69.43
2022-11-19T17:18:04.021Z,69.40
2022-11-19T17:19:10.006Z,69.40
2022-11-19T17:20:03.084Z,69.40
2022-11-19T17:21:03.030Z,69.41
2022-11-19T17:22:02.979Z,69.42
2022-11-19T17:23:03.056Z,69.42
2022-11-19T17:24:03.888Z,69.40
2022-11-19T17:25:04.247Z,69.39
2022-11-19T17:26:02.944Z,69.38
2022-11-19T17:27:02.976Z,69.40
2022-11-19T17:28:02.902Z,69.40
2022-11-19T17:29:03.298Z,69.38
2022-11-19T17:30:03.860Z,69.36
2022-11-19T17:31:02.916Z,69.36
2022-11-19T17:32:03.613Z,69.35
2022-11-19T17:33:02.909Z,69.33
2022-11-19T17:34:03.105Z,69.33
2022-11-19T17:35:02.824Z,69.32
2022-11-19T17:36:03.889Z,69.32
2022-11-19T17:37:02.810Z,69.30
2022-11-19T17:38:03.555Z,69.30
2022-11-19T17:39:03.175Z,69.29
2022-11-19T17:40:02.750Z,69.27
2022-11-19T17:41:03.720Z,69.29
2022-11-19T17:42:02.759Z,69.28
2022-11-19T17:43:03.067Z,69.30
2022-11-19T17:44:02.751Z,69.28
2022-11-19T17:45:09.161Z,69.29
2022-11-19T17:46:05.234Z,69.28
2022-11-19T17:47:02.949Z,69.28
2022-11-19T17:48:02.965Z,69.29
2022-11-19T17:49:03.091Z,69.29
2022-11-19T17:50:02.672Z,69.26
2022-11-19T17:51:02.605Z,69.25
2022-11-19T17:52:05.237Z,69.25
2022-11-19T17:53:02.574Z,69.23
2022-11-19T17:54:03.403Z,69.22
2022-11-19T17:55:02.604Z,69.23
2022-11-19T17:56:02.539Z,69.24
2022-11-19T17:57:03.583Z,69.22
2022-11-19T17:58:02.542Z,69.20
2022-11-19T17:59:02.543Z,69.19
2022-11-19T18:00:02.519Z,69.19
2022-11-19T18:01:04.292Z,69.18
2022-11-19T18:02:02.643Z,69.17
2022-11-19T18:03:03.566Z,69.15
2022-11-19T18:04:02.572Z,69.13
2022-11-19T18:05:02.452Z,69.13
2022-11-19T18:06:02.501Z,69.13
2022-11-19T18:07:02.502Z,69.11
2022-11-19T18:08:02.497Z,69.12
2022-11-19T18:09:03.768Z,69.12
2022-11-19T18:10:02.386Z,69.11
2022-11-19T18:11:02.446Z,69.10
2022-11-19T18:12:02.407Z,69.09
2022-11-19T18:13:03.113Z,69.10
2022-11-19T18:14:03.256Z,69.08
2022-11-19T18:15:02.456Z,69.09
2022-11-19T18:16:02.691Z,69.08
2022-11-19T18:17:02.284Z,69.08
2022-11-19T18:18:02.346Z,69.04
2022-11-19T18:19:02.429Z,69.06
2022-11-19T18:20:03.194Z,69.06
2022-11-19T18:21:02.612Z,69.05
2022-11-19T18:22:02.293Z,69.05
2022-11-19T18:23:02.219Z,69.04
2022-11-19T18:24:02.518Z,69.04
2022-11-19T18:25:03.147Z,69.03
2022-11-19T18:26:04.726Z,69.03
2022-11-19T18:27:02.193Z,69.02
2022-11-19T18:28:02.233Z,69.01
2022-11-19T18:29:02.145Z,69.03
2022-11-19T18:30:02.157Z,69.02
2022-11-19T18:31:03.098Z,69.03
2022-11-19T18:32:02.126Z,69.04
2022-11-19T18:33:02.103Z,69.04
2022-11-19T18:34:02.088Z,69.04
2022-11-19T18:35:02.190Z,69.03
2022-11-19T18:36:02.187Z,69.02
2022-11-19T18:37:03.786Z,69.02
2022-11-19T18:38:02.018Z,68.99
2022-11-19T18:39:02.557Z,68.98
2022-11-19T18:40:02.017Z,68.99
2022-11-19T18:41:02.420Z,68.97
2022-11-19T18:42:02.047Z,68.97
2022-11-19T18:43:02.943Z,68.96
2022-11-19T18:44:02.044Z,68.94
2022-11-19T18:45:01.936Z,68.94
2022-11-19T18:46:01.894Z,68.94
2022-11-19T18:47:02.046Z,68.93
2022-11-19T18:48:01.881Z,68.93
2022-11-19T18:49:02.872Z,68.90
2022-11-19T18:50:01.875Z,68.89
2022-11-19T18:51:01.872Z,68.88
2022-11-19T18:52:02.929Z,68.86
2022-11-19T18:53:01.809Z,68.85
2022-11-19T18:54:01.819Z,68.83
2022-11-19T18:55:02.769Z,68.82
2022-11-19T18:56:01.811Z,68.79
2022-11-19T18:57:02.019Z,68.79
2022-11-19T18:58:01.826Z,68.78
2022-11-19T18:59:04.764Z,68.76
2022-11-19T19:00:02.138Z,68.76
2022-11-19T19:01:03.432Z,68.75
2022-11-19T19:02:08.241Z,68.74
2022-11-19T19:03:02.423Z,68.74
2022-11-19T19:04:02.170Z,68.76
2022-11-19T19:05:01.743Z,68.75
2022-11-19T19:06:02.736Z,68.75
2022-11-19T19:07:01.774Z,68.73
2022-11-19T19:08:01.712Z,68.72
2022-11-19T19:09:01.698Z,68.72
2022-11-19T19:10:01.618Z,68.71
2022-11-19T19:11:03.436Z,68.70
2022-11-19T19:12:01.602Z,68.70
2022-11-19T19:13:01.673Z,68.70
2022-11-19T19:14:05.597Z,68.70
2022-11-19T19:15:01.562Z,68.68
2022-11-19T19:16:01.573Z,68.70
2022-11-19T19:17:02.509Z,68.69
2022-11-19T19:18:07.474Z,68.69
2022-11-19T19:19:03.022Z,68.69
2022-11-19T19:20:01.590Z,68.69
2022-11-19T19:21:01.473Z,68.68
2022-11-19T19:22:02.447Z,68.67
2022-11-19T19:23:01.761Z,68.67
2022-11-19T19:24:01.806Z,68.67
2022-11-19T19:25:02.381Z,68.67
2022-11-19T19:26:01.442Z,68.67
2022-11-19T19:27:02.771Z,68.65
2022-11-19T19:28:01.468Z,68.66
2022-11-19T19:29:01.451Z,68.66
2022-11-19T19:30:01.426Z,68.66
2022-11-19T19:31:01.367Z,68.65
2022-11-19T19:32:01.397Z,68.63
2022-11-19T19:33:02.784Z,68.61
2022-11-19T19:34:01.369Z,68.61
2022-11-19T19:35:01.389Z,68.61
2022-11-19T19:36:01.322Z,68.62
2022-11-19T19:37:01.400Z,68.61
2022-11-19T19:38:01.311Z,68.61
2022-11-19T19:39:02.231Z,68.63
2022-11-19T19:40:01.373Z,68.62
2022-11-19T19:41:01.627Z,68.62
2022-11-19T19:42:01.225Z,68.62
2022-11-19T19:43:01.233Z,68.62
2022-11-19T19:44:01.233Z,68.62
2022-11-19T19:45:02.109Z,68.62
2022-11-19T19:46:01.172Z,68.61
2022-11-19T19:47:01.173Z,68.61
2022-11-19T19:48:01.163Z,68.61
2022-11-19T19:49:01.117Z,68.59
2022-11-19T19:50:02.101Z,68.59
2022-11-19T19:51:01.083Z,68.59
2022-11-19T19:52:01.100Z,68.61
2022-11-19T19:53:01.085Z,68.61
2022-11-19T19:54:01.072Z,68.60
2022-11-19T19:55:02.029Z,68.58
2022-11-19T19:56:01.042Z,68.57
2022-11-19T19:57:01.013Z,68.61
2022-11-19T19:58:01.041Z,68.63
2022-11-19T19:59:01.037Z,68.64
2022-11-19T20:00:01.050Z,68.63
2022-11-19T20:01:01.911Z,68.62
2022-11-19T20:02:01.092Z,68.62
2022-11-19T20:03:00.972Z,68.61
2022-11-19T20:04:00.939Z,68.62
2022-11-19T20:05:00.960Z,68.62
2022-11-19T20:06:00.898Z,68.63
2022-11-19T20:07:02.176Z,68.61
2022-11-19T20:08:01.010Z,68.61
2022-11-19T20:09:05.619Z,68.59
2022-11-19T20:10:02.410Z,68.57
2022-11-19T20:11:00.899Z,68.57
2022-11-19T20:12:01.262Z,68.56
2022-11-19T20:13:01.890Z,68.58
2022-11-19T20:14:00.846Z,68.58
2022-11-19T20:15:00.872Z,68.59
2022-11-19T20:16:04.751Z,68.60
2022-11-19T20:17:00.793Z,68.61
2022-11-19T20:18:00.819Z,68.61
2022-11-19T20:19:01.718Z,68.62
2022-11-19T20:20:00.843Z,68.63
2022-11-19T20:21:00.841Z,68.63
2022-11-19T20:22:00.701Z,68.64
2022-11-19T20:23:00.729Z,68.64
2022-11-19T20:24:02.505Z,68.65
2022-11-19T20:25:02.461Z,68.65
2022-11-19T20:26:00.686Z,68.67
2022-11-19T20:27:00.688Z,68.67
2022-11-19T20:28:00.657Z,68.67
2022-11-19T20:29:01.689Z,68.66
2022-11-19T20:30:00.865Z,68.67
2022-11-19T20:31:00.643Z,68.69
2022-11-19T20:32:00.657Z,68.68
2022-11-19T20:33:00.676Z,68.68
2022-11-19T20:34:01.573Z,68.67
2022-11-19T20:35:00.617Z,68.68
2022-11-19T20:36:00.856Z,68.68
2022-11-19T20:37:00.604Z,68.69
2022-11-19T20:38:03.428Z,68.70
2022-11-19T20:39:01.563Z,68.67
2022-11-19T20:40:00.548Z,68.66
2022-11-19T20:41:00.520Z,68.63
2022-11-19T20:42:00.518Z,68.62
2022-11-19T20:43:00.473Z,68.62
2022-11-19T20:44:00.472Z,68.60
2022-11-19T20:45:01.362Z,68.62
2022-11-19T20:46:00.445Z,68.63
2022-11-19T20:47:01.220Z,68.63
2022-11-19T20:48:00.371Z,68.65
2022-11-19T20:49:00.414Z,68.66
2022-11-19T20:50:00.345Z,68.66
2022-11-19T20:51:01.304Z,68.70
2022-11-19T20:52:00.362Z,68.70
2022-11-19T20:53:00.373Z,68.70
2022-11-19T20:54:00.419Z,68.68
2022-11-19T20:55:06.223Z,68.67
2022-11-19T20:56:05.799Z,68.68
2022-11-19T20:57:00.266Z,68.67
2022-11-19T20:58:00.269Z,68.69
2022-11-19T20:59:00.380Z,68.70
2022-11-19T21:00:00.205Z,68.71
2022-11-19T21:01:00.360Z,68.75
2022-11-19T21:02:01.210Z,68.73
2022-11-19T21:03:00.223Z,68.75
2022-11-19T21:04:00.185Z,68.74
2022-11-19T21:05:00.174Z,68.74
2022-11-19T21:06:04.052Z,68.73
2022-11-19T21:07:06.642Z,68.76
2022-11-19T21:08:00.177Z,68.77
2022-11-19T21:09:00.417Z,68.80
2022-11-19T21:10:04.838Z,68.80
2022-11-19T21:11:01.619Z,68.81
2022-11-19T21:12:00.127Z,68.81
2022-11-19T21:13:01.033Z,68.79
2022-11-19T21:14:00.092Z,68.78
2022-11-19T21:15:00.063Z,68.74
2022-11-19T21:16:00.084Z,68.73
2022-11-19T21:17:00.338Z,68.73
2022-11-19T21:18:01.024Z,68.72
2022-11-19T21:18:59.979Z,68.70
2022-11-19T21:20:00.007Z,68.70
2022-11-19T21:21:00.010Z,68.69
2022-11-19T21:22:00.004Z,68.71